Time;durP1;ratioP1;P1;durP2;ratioP2;P2;SDS_P1;SDS_P2;PMS_P1;PMS_P2;Temp;Humidity;BMP_temperature;BMP_pressure;BME280_temperature;BME280_humidity;BME280_pressure;Samples;Min_cycle;Max_cycle;Signal;HPM_P1;HPM_P2
2021/03/05 05:50:43;;;;;;;14.30;7.72;;;3.60;93.40;;;;;;4978209;28;20031;-92
2021/03/05 05:53:44;;;;;;;12.52;7.75;;;3.60;93.30;;;;;;4972878;28;20045;-92
2021/03/05 05:56:52;;;;;;;13.73;7.40;;;3.40;93.30;;;;;;4955938;28;20064;-93
2021/03/05 05:59:49;;;;;;;14.57;7.50;;;3.40;93.50;;;;;;4956557;28;20123;-91
2021/03/05 06:02:27;;;;;;;10.75;6.93;;;3.40;93.30;;;;;;4973219;28;20131;-92
2021/03/05 06:05:27;;;;;;;13.63;8.13;;;3.30;93.30;;;;;;5003187;28;20046;-92
2021/03/05 06:08:39;;;;;;;14.57;7.90;;;3.30;93.00;;;;;;4974604;28;20076;-92
2021/03/05 06:11:57;;;;;;;;;;;;;;;;;;;;;
2021/03/05 06:17:14;;;;;;;16.23;7.53;;;3.20;92.20;;;;;;4997025;28;20041;-90
2021/03/05 06:19:57;;;;;;;14.20;7.05;;;3.00;92.40;;;;;;4963651;28;20122;-91
2021/03/05 06:22:47;;;;;;;11.52;6.35;;;3.00;92.60;;;;;;4979666;28;20422;-91
2021/03/05 06:25:51;;;;;;;13.80;6.72;;;3.00;92.60;;;;;;5011314;28;20130;-91
2021/03/05 06:28:18;;;;;;;15.02;6.90;;;2.90;92.80;;;;;;4985264;28;20434;-91
2021/03/05 06:31:18;;;;;;;12.90;7.40;;;3.00;92.80;;;;;;4968227;28;20049;-92
2021/03/05 06:34:20;;;;;;;11.88;6.30;;;2.90;92.60;;;;;;4967949;28;20307;-92
2021/03/05 06:37:02;;;;;;;16.73;6.80;;;2.90;92.70;;;;;;5041561;28;20035;-92
2021/03/05 06:40:18;;;;;;;20.08;9.50;;;2.80;92.80;;;;;;4942088;29;20519;-92
2021/03/05 06:43:09;;;;;;;29.20;12.65;;;2.70;92.70;;;;;;4974069;28;20085;-91
2021/03/05 06:45:51;;;;;;;41.08;18.75;;;2.60;92.60;;;;;;5047220;28;20042;-91
2021/03/05 06:48:31;;;;;;;40.97;20.08;;;2.60;92.80;;;;;;4950293;28;20050;-90
2021/03/05 06:51:16;;;;;;;23.38;12.32;;;2.60;92.90;;;;;;4964554;28;20100;-92
2021/03/05 06:54:14;;;;;;;18.25;9.45;;;2.60;92.60;;;;;;4973696;28;20096;-91
2021/03/05 06:56:55;;;;;;;19.63;10.38;;;2.60;92.70;;;;;;4976868;28;20035;-91
2021/03/05 06:59:33;;;;;;;28.00;11.70;;;2.50;92.60;;;;;;4957947;28;20136;-90
2021/03/05 07:05:01;;;;;;;16.20;6.82;;;2.50;92.70;;;;;;4968072;28;20042;-91
2021/03/05 07:10:35;;;;;;;10.43;5.00;;;2.40;92.80;;;;;;4974607;28;20109;-90
2021/03/05 07:13:06;;;;;;;16.58;7.55;;;2.40;92.80;;;;;;4966738;28;20051;-90
2021/03/05 07:16:29;;;;;;;15.57;5.13;;;2.40;92.90;;;;;;4960865;28;20050;-91
2021/03/05 07:19:23;;;;;;;12.43;4.50;;;2.40;92.50;;;;;;4982284;28;20039;-91
2021/03/05 07:22:22;;;;;;;13.00;4.80;;;2.40;92.70;;;;;;5019327;28;20038;-91
2021/03/05 07:25:34;;;;;;;;;;;;;;;;;;;;;
2021/03/05 07:35:20;;;;;;;15.40;5.63;;;2.40;92.10;;;;;;4969390;28;20042;-91
2021/03/05 07:45:05;;;;;;;12.05;6.07;;;2.50;91.40;;;;;;4992516;28;20339;-91
2021/03/05 07:55:08;;;;;;;13.38;5.05;;;2.60;90.90;;;;;;4972660;28;20088;-90
2021/03/05 07:58:12;;;;;;;12.00;5.45;;;2.50;90.90;;;;;;4977387;28;20032;-90
2021/03/05 08:31:24;;;;;;;9.90;4.05;;;3.10;87.40;;;;;;4880990;29;20116;-89
2021/03/05 08:44:08;;;;;;;3.90;2.63;;;3.40;83.90;;;;;;4887234;29;20048;-93
2021/03/05 15:41:54;;;;;;;2.22;1.20;;;7.00;53.20;;;;;;4978653;28;20037;-90
2021/03/05 18:23:30;;;;;;;4.03;2.35;;;4.30;61.80;;;;;;4996150;28;20147;-92
2021/03/05 18:25:56;;;;;;;3.08;2.13;;;4.20;62.10;;;;;;4967228;28;20031;-92
2021/03/05 18:38:26;;;;;;;2.80;2.05;;;4.10;62.50;;;;;;5029555;28;20056;-89
2021/03/05 18:44:22;;;;;;;2.53;2.10;;;3.90;63.40;;;;;;5030059;28;20080;-91
2021/03/05 18:50:22;;;;;;;2.38;1.92;;;3.90;63.70;;;;;;5028273;28;20033;-90
2021/03/05 18:53:18;;;;;;;3.25;2.50;;;3.80;63.50;;;;;;4982218;28;20054;-93
